Time;durP1;ratioP1;P1;durP2;ratioP2;P2;SDS_P1;SDS_P2;PMS_P1;PMS_P2;Temp;Humidity;BMP_temperature;BMP_pressure;BME280_temperature;BME280_humidity;BME280_pressure;Samples;Min_cycle;Max_cycle;Signal;HPM_P1;HPM_P2
2023/11/24 00:01:19;;;;;;;55.15;26.17;;;;;;;;;;6227801;28;20333;-90
2023/11/24 00:04:21;;;;;;;31.90;16.20;;;;;;;;;;6249520;28;20079;-91
2023/11/24 00:07:25;;;;;;;21.70;13.65;;;;;;;;;;6246031;28;20053;-91
2023/11/24 00:10:28;;;;;;;22.43;12.97;;;;;;;;;;6248126;28;20057;-91
2023/11/24 00:13:30;;;;;;;25.55;12.55;;;;;;;;;;6248951;28;20046;-91
2023/11/24 00:16:32;;;;;;;21.35;12.98;;;;;;;;;;6230362;28;20049;-90
2023/11/24 00:19:34;;;;;;;24.45;13.00;;;;;;;;;;6246424;28;20887;-90
2023/11/24 00:22:37;;;;;;;25.48;14.32;;;;;;;;;;6245592;28;20054;-89
2023/11/24 00:25:39;;;;;;;24.57;13.97;;;;;;;;;;6249643;28;20164;-90
2023/11/24 00:28:41;;;;;;;21.17;13.05;;;;;;;;;;6249933;28;20281;-91
2023/11/24 00:31:43;;;;;;;25.65;13.95;;;;;;;;;;6246376;28;20369;-90
2023/11/24 00:34:49;;;;;;;23.77;13.68;;;;;;;;;;6245204;28;20053;-91
2023/11/24 00:37:53;;;;;;;23.08;13.60;;;;;;;;;;6243100;28;20306;-91
2023/11/24 00:40:55;;;;;;;25.97;13.53;;;;;;;;;;6229784;28;20049;-91
2023/11/24 00:43:57;;;;;;;26.90;14.75;;;;;;;;;;6226415;28;20484;-90
2023/11/24 00:46:59;;;;;;;25.40;14.20;;;;;;;;;;6246094;28;20352;-90
2023/11/24 00:50:01;;;;;;;23.40;14.27;;;;;;;;;;6231715;28;20068;-90
2023/11/24 00:53:05;;;;;;;24.95;13.70;;;;;;;;;;6252435;28;20112;-90
2023/11/24 00:56:08;;;;;;;25.30;14.68;;;;;;;;;;6246846;28;20061;-90
2023/11/24 00:59:10;;;;;;;26.60;14.77;;;;;;;;;;6228865;28;20266;-93
2023/11/24 01:02:12;;;;;;;26.48;13.65;;;;;;;;;;6248003;28;20532;-91
2023/11/24 01:05:14;;;;;;;25.65;12.95;;;;;;;;;;6249458;28;20042;-91
2023/11/24 01:08:18;;;;;;;26.00;13.82;;;;;;;;;;6244602;28;20068;-91
2023/11/24 01:11:20;;;;;;;27.27;13.70;;;;;;;;;;6244182;28;20069;-91
2023/11/24 01:14:21;;;;;;;23.95;13.65;;;;;;;;;;6250857;28;20056;-90
2023/11/24 01:17:24;;;;;;;25.30;13.95;;;;;;;;;;6245815;28;20057;-91
2023/11/24 01:20:25;;;;;;;26.25;14.13;;;;;;;;;;6245029;28;20063;-91
2023/11/24 01:23:29;;;;;;;23.10;13.43;;;;;;;;;;6249927;28;20322;-91
2023/11/24 01:26:30;;;;;;;22.07;13.20;;;;;;;;;;6249175;28;20053;-89
2023/11/24 01:29:32;;;;;;;21.75;13.27;;;;;;;;;;6249205;28;20057;-91
2023/11/24 01:32:34;;;;;;;20.73;13.93;;;;;;;;;;6245631;28;20052;-92
2023/11/24 01:35:36;;;;;;;22.77;13.00;;;;;;;;;;6249767;28;20084;-91
2023/11/24 01:38:39;;;;;;;23.95;14.13;;;;;;;;;;6244685;28;20053;-91
2023/11/24 01:41:41;;;;;;;23.13;13.90;;;;;;;;;;6247764;28;20053;-92
2023/11/24 01:44:43;;;;;;;22.10;13.57;;;;;;;;;;6230980;28;20055;-90
2023/11/24 01:47:46;;;;;;;22.52;13.00;;;;;;;;;;6245798;28;20057;-91
2023/11/24 01:50:49;;;;;;;23.27;13.20;;;;;;;;;;6246066;28;20041;-93
2023/11/24 01:53:52;;;;;;;22.52;13.68;;;;;;;;;;6247097;28;20073;-91
2023/11/24 01:56:55;;;;;;;23.58;13.15;;;;;;;;;;6223351;28;20052;-91
2023/11/24 01:59:57;;;;;;;24.52;13.07;;;;;;;;;;6228828;28;20057;-91
2023/11/24 02:02:59;;;;;;;21.02;12.07;;;;;;;;;;6248945;28;20103;-91
2023/11/24 02:06:01;;;;;;;22.63;12.88;;;;;;;;;;6247425;28;20062;-92
2023/11/24 02:09:05;;;;;;;24.95;12.90;;;;;;;;;;6236536;28;20072;-93
2023/11/24 02:12:08;;;;;;;19.77;11.13;;;;;;;;;;6246083;28;20057;-92
2023/11/24 02:15:10;;;;;;;20.63;12.02;;;;;;;;;;6245793;28;20357;-92
2023/11/24 02:18:12;;;;;;;18.13;11.90;;;;;;;;;;6229263;28;20049;-92
2023/11/24 02:21:14;;;;;;;20.55;12.20;;;;;;;;;;6244430;28;20393;-92
2023/11/24 02:24:25;;;;;;;20.85;11.30;;;;;;;;;;6242878;28;20049;-92
2023/11/24 02:27:28;;;;;;;19.15;11.43;;;;;;;;;;6207626;28;20104;-92
2023/11/24 02:30:30;;;;;;;20.03;11.67;;;;;;;;;;6245645;28;20242;-91
2023/11/24 02:33:33;;;;;;;22.13;12.48;;;;;;;;;;6249812;28;20056;-91
2023/11/24 02:36:37;;;;;;;19.77;12.48;;;;;;;;;;6242381;28;20057;-91
2023/11/24 02:39:41;;;;;;;21.33;12.23;;;;;;;;;;6247497;28;20061;-91
2023/11/24 02:42:43;;;;;;;20.63;11.35;;;;;;;;;;6231598;28;20200;-92
2023/11/24 02:45:44;;;;;;;23.00;12.10;;;;;;;;;;6250385;28;20227;-91
2023/11/24 02:48:46;;;;;;;18.40;11.13;;;;;;;;;;6251957;28;20049;-91
2023/11/24 02:51:48;;;;;;;19.27;12.00;;;;;;;;;;6234762;28;20084;-93
2023/11/24 02:54:53;;;;;;;19.17;11.02;;;;;;;;;;6248866;28;20345;-92
2023/11/24 02:57:57;;;;;;;18.38;10.60;;;;;;;;;;6246989;28;20057;-91
2023/11/24 03:01:19;;;;;;;19.25;10.57;;;;;;;;;;6220709;28;20202;-93
2023/11/24 03:04:21;;;;;;;21.42;11.13;;;;;;;;;;6249255;28;20070;-90
2023/11/24 03:07:24;;;;;;;20.88;11.55;;;;;;;;;;6247738;28;20095;-93
2023/11/24 03:10:27;;;;;;;17.55;11.07;;;;;;;;;;6245397;28;20049;-91
2023/11/24 03:13:29;;;;;;;19.52;11.02;;;;;;;;;;6249572;28;20350;-91
2023/11/24 03:16:32;;;;;;;19.50;10.93;;;;;;;;;;6252736;28;20063;-93
2023/11/24 03:19:33;;;;;;;16.10;10.75;;;;;;;;;;6225194;28;20113;-92
2023/11/24 03:22:36;;;;;;;18.35;10.75;;;;;;;;;;6246840;28;20056;-91
2023/11/24 03:25:39;;;;;;;19.00;11.00;;;;;;;;;;6252528;28;20052;-93
2023/11/24 03:28:41;;;;;;;17.35;11.25;;;;;;;;;;6234731;28;20059;-94
2023/11/24 03:31:43;;;;;;;19.17;11.07;;;;;;;;;;6247982;28;20050;-92
2023/11/24 03:34:45;;;;;;;21.98;11.88;;;;;;;;;;6249685;28;20091;-90
2023/11/24 03:37:47;;;;;;;21.02;11.93;;;;;;;;;;6255734;28;20244;-91
2023/11/24 03:40:54;;;;;;;19.90;11.23;;;;;;;;;;6251923;28;20060;-94
2023/11/24 03:43:55;;;;;;;18.05;10.00;;;;;;;;;;6251633;28;20049;-93
2023/11/24 03:46:57;;;;;;;17.17;10.05;;;;;;;;;;6247940;28;20249;-93
2023/11/24 03:50:00;;;;;;;16.83;10.90;;;;;;;;;;6243789;28;20061;-93
2023/11/24 03:53:02;;;;;;;17.65;10.60;;;;;;;;;;6224297;28;20054;-93
2023/11/24 03:56:06;;;;;;;15.70;9.45;;;;;;;;;;6252074;28;20044;-92
2023/11/24 03:59:08;;;;;;;18.52;9.95;;;;;;;;;;6249942;28;20338;-92
2023/11/24 04:02:10;;;;;;;16.65;10.80;;;;;;;;;;6234566;28;20056;-92
2023/11/24 04:05:13;;;;;;;16.63;9.15;;;;;;;;;;6256944;28;20048;-93
2023/11/24 04:08:15;;;;;;;13.05;8.45;;;;;;;;;;6255374;28;20057;-93
2023/11/24 04:14:33;;;;;;;18.48;9.90;;;;;;;;;;6241249;28;20042;-93
2023/11/24 04:17:35;;;;;;;15.45;8.85;;;;;;;;;;6250519;28;20053;-93
2023/11/24 04:20:37;;;;;;;15.35;8.23;;;;;;;;;;6249136;28;20342;-93
2023/11/24 04:23:39;;;;;;;12.32;8.65;;;;;;;;;;6249845;28;20129;-94
2023/11/24 04:26:43;;;;;;;15.75;8.55;;;;;;;;;;6250040;28;20053;-93
2023/11/24 04:29:45;;;;;;;14.55;8.60;;;;;;;;;;6233086;28;20057;-92
2023/11/24 04:32:47;;;;;;;14.82;9.25;;;;;;;;;;6248912;28;20205;-94
2023/11/24 04:35:49;;;;;;;18.45;9.05;;;;;;;;;;6248568;28;20057;-93
2023/11/24 04:38:51;;;;;;;15.32;9.20;;;;;;;;;;6247418;28;20053;-93
2023/11/24 04:41:54;;;;;;;15.18;9.15;;;;;;;;;;6246616;28;20056;-93
2023/11/24 04:44:56;;;;;;;17.70;9.00;;;;;;;;;;6251278;28;20049;-94
2023/11/24 04:47:58;;;;;;;15.95;9.07;;;;;;;;;;6252725;28;20466;-91
2023/11/24 04:51:00;;;;;;;19.70;9.57;;;;;;;;;;6254058;28;20333;-92
2023/11/24 04:54:03;;;;;;;14.10;8.32;;;;;;;;;;6250185;28;20062;-93
2023/11/24 04:57:09;;;;;;;17.77;9.43;;;;;;;;;;6246244;28;20088;-92
2023/11/24 05:00:13;;;;;;;13.82;8.45;;;;;;;;;;6229009;28;20101;-93
2023/11/24 05:03:14;;;;;;;;;;;;;;;;;;6250384;28;20088;-92
2023/11/24 05:06:17;;;;;;;19.40;9.38;;;;;;;;;;6249434;28;19925;-93
2023/11/24 05:09:18;;;;;;;15.43;8.95;;;;;;;;;;6249026;28;20068;-93
2023/11/24 05:12:22;;;;;;;15.27;8.98;;;;;;;;;;6247608;28;20061;-92
2023/11/24 05:15:24;;;;;;;20.10;8.97;;;;;;;;;;6245554;28;20338;-92
2023/11/24 05:18:26;;;;;;;19.85;9.20;;;;;;;;;;6246977;28;20100;-93
2023/11/24 05:21:28;;;;;;;16.85;8.80;;;;;;;;;;6242286;28;20367;-93
2023/11/24 05:24:30;;;;;;;13.15;8.57;;;;;;;;;;6248022;28;20059;-91
2023/11/24 05:27:33;;;;;;;18.17;8.45;;;;;;;;;;6246811;28;20053;-92
2023/11/24 05:30:35;;;;;;;14.83;8.67;;;;;;;;;;6250993;28;20037;-92
2023/11/24 05:33:37;;;;;;;15.93;8.90;;;;;;;;;;6246545;28;20061;-93
2023/11/24 05:36:39;;;;;;;14.85;8.32;;;;;;;;;;6246334;28;20053;-92
2023/11/24 05:39:41;;;;;;;19.63;8.95;;;;;;;;;;6244851;28;20046;-91
2023/11/24 05:42:44;;;;;;;22.63;9.15;;;;;;;;;;6244840;28;20050;-93
2023/11/24 05:45:47;;;;;;;17.27;9.48;;;;;;;;;;6242781;28;20087;-91
2023/11/24 05:48:50;;;;;;;16.27;8.90;;;;;;;;;;6247234;28;20367;-95
2023/11/24 05:51:53;;;;;;;12.38;8.43;;;;;;;;;;6246829;28;20060;-94
2023/11/24 05:54:58;;;;;;;12.90;8.48;;;;;;;;;;6242771;28;20112;-95
2023/11/24 05:58:05;;;;;;;16.00;8.27;;;;;;;;;;6246164;28;20159;-94
2023/11/24 06:01:07;;;;;;;15.20;7.55;;;;;;;;;;6241070;28;20308;-94
2023/11/24 06:04:29;;;;;;;12.15;7.22;;;;;;;;;;6222686;28;20061;-95
2023/11/24 06:07:31;;;;;;;12.18;7.18;;;;;;;;;;6236651;28;20046;-94
2023/11/24 06:10:33;;;;;;;15.05;7.80;;;;;;;;;;6230938;28;20215;-93
2023/11/24 06:13:38;;;;;;;11.13;7.05;;;;;;;;;;6247620;28;20234;-94
2023/11/24 06:16:40;;;;;;;16.33;7.88;;;;;;;;;;6245905;28;20041;-94
2023/11/24 06:19:42;;;;;;;15.02;7.53;;;;;;;;;;6244500;28;20080;-93
2023/11/24 06:22:44;;;;;;;14.90;7.32;;;;;;;;;;6210550;28;20096;-91
2023/11/24 06:25:46;;;;;;;18.63;8.35;;;;;;;;;;6244561;28;20065;-90
2023/11/24 06:28:50;;;;;;;16.02;8.57;;;;;;;;;;6246826;28;20072;-93
2023/11/24 06:31:52;;;;;;;14.57;8.65;;;;;;;;;;6237841;28;20263;-93
2023/11/24 06:34:53;;;;;;;17.10;9.18;;;;;;;;;;6244348;28;20108;-93
2023/11/24 06:37:55;;;;;;;20.38;8.52;;;;;;;;;;6229437;28;20045;-93
2023/11/24 06:40:57;;;;;;;16.23;9.63;;;;;;;;;;6247603;28;20381;-93
2023/11/24 06:44:01;;;;;;;18.52;9.15;;;;;;;;;;6247480;28;20116;-93
2023/11/24 06:47:03;;;;;;;16.37;8.50;;;;;;;;;;6240919;28;20105;-93
2023/11/24 06:50:05;;;;;;;13.20;8.55;;;;;;;;;;6246517;28;20377;-92
2023/11/24 06:53:07;;;;;;;13.75;8.18;;;;;;;;;;6243301;28;20057;-93
2023/11/24 06:56:09;;;;;;;14.02;7.15;;;;;;;;;;6246677;28;20116;-91
2023/11/24 06:59:13;;;;;;;13.95;7.85;;;;;;;;;;6243221;28;20345;-93
2023/11/24 07:02:36;;;;;;;13.45;7.57;;;;;;;;;;6225349;28;20075;-92
2023/11/24 07:05:37;;;;;;;11.65;7.63;;;;;;;;;;6217269;28;20045;-94
2023/11/24 07:08:39;;;;;;;14.52;7.22;;;;;;;;;;6245238;28;20049;-93
2023/11/24 07:11:43;;;;;;;15.93;7.82;;;;;;;;;;6245027;28;20064;-94
2023/11/24 07:14:47;;;;;;;10.50;6.80;;;;;;;;;;6242780;28;20242;-96
2023/11/24 07:17:49;;;;;;;17.35;7.28;;;;;;;;;;6245448;28;20046;-95
2023/11/24 07:20:54;;;;;;;11.95;6.90;;;;;;;;;;6242935;28;20342;-94
2023/11/24 07:23:56;;;;;;;12.82;6.97;;;;;;;;;;6244517;28;20050;-93
2023/11/24 07:27:00;;;;;;;13.55;6.93;;;;;;;;;;6242994;28;20045;-93
2023/11/24 07:33:20;;;;;;;12.85;6.40;;;;;;;;;;6177791;28;20110;-93
2023/11/24 07:36:22;;;;;;;18.65;6.70;;;;;;;;;;6168089;28;20077;-92
2023/11/24 07:39:24;;;;;;;11.77;6.85;;;;;;;;;;6170323;28;20254;-93
2023/11/24 07:42:25;;;;;;;11.43;6.63;;;;;;;;;;6174573;28;20355;-92
2023/11/24 07:45:29;;;;;;;10.00;6.63;;;;;;;;;;6173491;28;20178;-94
2023/11/24 07:48:31;;;;;;;14.38;6.75;;;;;;;;;;6171123;28;20043;-93
2023/11/24 07:51:33;;;;;;;17.02;7.75;;;;;;;;;;6172122;28;20065;-92
2023/11/24 07:54:36;;;;;;;13.13;6.55;;;;;;;;;;6171817;28;20098;-92
2023/11/24 07:57:38;;;;;;;17.20;8.48;;;;;;;;;;6174863;28;20170;-93
2023/11/24 08:00:41;;;;;;;13.77;8.32;;;;;;;;;;6173857;28;20055;-92
2023/11/24 08:03:44;;;;;;;14.00;8.27;;;;;;;;;;6183954;28;20060;-91
2023/11/24 08:06:46;;;;;;;14.85;8.35;;;;;;;;;;6247180;28;20346;-91
2023/11/24 08:09:50;;;;;;;12.10;7.93;;;;;;;;;;6247382;28;20057;-91
2023/11/24 08:12:52;;;;;;;15.18;8.98;;;;;;;;;;6245303;28;20073;-93
2023/11/24 08:15:56;;;;;;;20.17;10.60;;;;;;;;;;6245408;28;20246;-93
2023/11/24 08:18:57;;;;;;;22.98;11.68;;;;;;;;;;6247810;28;20234;-93
2023/11/24 08:22:00;;;;;;;22.20;11.60;;;;;;;;;;6246872;28;20053;-92
2023/11/24 08:29:17;;;;;;;24.13;12.30;;;;;;;;;;6183516;28;20046;-91
2023/11/24 08:35:38;;;;;;;24.23;11.10;;;;;;;;;;6228147;28;20056;-92
2023/11/24 08:38:41;;;;;;;18.47;11.60;;;;;;;;;;6246113;28;20049;-91
2023/11/24 08:41:48;;;;;;;20.45;10.43;;;;;;;;;;6229520;28;20455;-91
2023/11/24 08:44:51;;;;;;;20.27;10.75;;;;;;;;;;6230632;28;20053;-90
2023/11/24 08:47:55;;;;;;;19.80;12.23;;;;;;;;;;6231482;28;20107;-91
2023/11/24 08:50:56;;;;;;;21.58;12.07;;;;;;;;;;6242208;28;20353;-91
2023/11/24 08:53:58;;;;;;;24.92;12.30;;;;;;;;;;6245879;28;20053;-90
2023/11/24 08:57:00;;;;;;;21.92;12.05;;;;;;;;;;6245031;28;20065;-90
2023/11/24 09:00:06;;;;;;;23.95;11.68;;;;;;;;;;6249535;28;20364;-91
2023/11/24 09:03:24;;;;;;;21.98;12.13;;;;;;;;;;6248489;28;20380;-91
2023/11/24 09:06:43;;;;;;;19.08;11.73;;;;;;;;;;6209628;28;20052;-91
2023/11/24 09:09:45;;;;;;;23.45;12.07;;;;;;;;;;6248418;28;20224;-90
2023/11/24 09:12:47;;;;;;;22.25;12.52;;;;;;;;;;6234921;28;20130;-90
2023/11/24 09:15:49;;;;;;;24.95;12.52;;;;;;;;;;6248667;28;20234;-90
2023/11/24 09:18:53;;;;;;;26.65;12.23;;;;;;;;;;6248698;28;20053;-90
2023/11/24 09:21:55;;;;;;;;;;;;;;;;;;6250312;28;20076;-90
2023/11/24 09:25:01;;;;;;;21.77;13.10;;;;;;;;;;6248037;28;20113;-90
2023/11/24 09:28:04;;;;;;;29.20;13.80;;;;;;;;;;6250956;28;20120;-89
2023/11/24 09:31:09;;;;;;;25.00;15.15;;;;;;;;;;6239110;28;20049;-89
2023/11/24 09:34:14;;;;;;;27.50;14.27;;;;;;;;;;6249716;28;20080;-88
2023/11/24 09:37:16;;;;;;;30.25;16.20;;;;;;;;;;6226498;28;20131;-90
2023/11/24 09:40:22;;;;;;;25.90;15.02;;;;;;;;;;6247006;28;20057;-90
2023/11/24 09:43:24;;;;;;;18.38;13.02;;;;;;;;;;6246416;28;20544;-88
2023/11/24 09:46:27;;;;;;;22.48;12.48;;;;;;;;;;6244579;28;20117;-88
2023/11/24 09:49:30;;;;;;;19.67;13.40;;;;;;;;;;6243727;28;20428;-91
2023/11/24 09:52:33;;;;;;;28.23;13.25;;;;;;;;;;6245687;28;20061;-89
2023/11/24 09:55:35;;;;;;;17.77;11.55;;;;;;;;;;6251441;28;20053;-91
2023/11/24 09:58:37;;;;;;;17.02;11.40;;;;;;;;;;6228883;28;20365;-90
2023/11/24 10:01:39;;;;;;;19.25;11.05;;;;;;;;;;6251070;28;20059;-89
2023/11/24 10:04:43;;;;;;;15.93;11.40;;;;;;;;;;6244197;28;20054;-89
2023/11/24 10:07:47;;;;;;;17.10;11.73;;;;;;;;;;6242817;28;20057;-89
2023/11/24 10:10:49;;;;;;;17.48;11.00;;;;;;;;;;6242548;28;20124;-88
2023/11/24 10:13:51;;;;;;;17.40;10.73;;;;;;;;;;6241429;28;20301;-89
2023/11/24 10:16:53;;;;;;;16.50;11.43;;;;;;;;;;6243862;28;20241;-87
2023/11/24 10:23:12;;;;;;;17.52;10.75;;;;;;;;;;6246589;28;20374;-90
2023/11/24 10:26:16;;;;;;;16.88;10.88;;;;;;;;;;6250737;28;20744;-88
2023/11/24 10:29:19;;;;;;;16.17;10.55;;;;;;;;;;6249302;28;20049;-89
2023/11/24 10:32:21;;;;;;;16.70;11.15;;;;;;;;;;6249634;28;20116;-86
2023/11/24 10:35:25;;;;;;;16.83;10.60;;;;;;;;;;6247025;28;20060;-86
2023/11/24 10:38:31;;;;;;;21.83;12.10;;;;;;;;;;6230878;28;20233;-88
2023/11/24 10:41:34;;;;;;;19.48;11.60;;;;;;;;;;6245975;28;20056;-88
2023/11/24 10:44:38;;;;;;;18.08;12.73;;;;;;;;;;6249916;28;20061;-87
2023/11/24 10:47:44;;;;;;;18.42;11.02;;;;;;;;;;6242635;28;20063;-86
2023/11/24 10:50:57;;;;;;;17.67;10.93;;;;;;;;;;6249057;28;20057;-88
2023/11/24 10:54:01;;;;;;;18.27;11.02;;;;;;;;;;6252577;28;20045;-89
2023/11/24 10:57:04;;;;;;;19.13;11.05;;;;;;;;;;6244822;28;20113;-89
2023/11/24 11:00:08;;;;;;;18.20;11.67;;;;;;;;;;6224686;28;20179;-89
2023/11/24 11:03:13;;;;;;;16.15;10.80;;;;;;;;;;6239765;28;20310;-89
2023/11/24 11:06:33;;;;;;;21.20;10.73;;;;;;;;;;6243805;28;20116;-89
2023/11/24 11:09:47;;;;;;;17.33;11.82;;;;;;;;;;6234665;28;20108;-88
2023/11/24 11:12:51;;;;;;;18.67;10.45;;;;;;;;;;6242718;28;20307;-90
2023/11/24 11:15:52;;;;;;;;;;;;;;;;;;6242446;28;20116;-89
2023/11/24 11:18:54;;;;;;;17.30;10.13;;;;;;;;;;6242131;28;19932;-89
2023/11/24 11:21:59;;;;;;;20.15;10.40;;;;;;;;;;6243183;28;20053;-89
2023/11/24 11:25:40;;;;;;;19.30;10.80;;;;;;;;;;6239570;28;20238;-89
2023/11/24 11:28:46;;;;;;;19.23;10.40;;;;;;;;;;6243880;28;20050;-89
2023/11/24 11:31:50;;;;;;;17.52;10.88;;;;;;;;;;6240854;28;20072;-89
2023/11/24 11:34:52;;;;;;;18.50;10.60;;;;;;;;;;6236594;28;20049;-89
2023/11/24 11:37:59;;;;;;;19.83;11.25;;;;;;;;;;6242771;28;20224;-90
2023/11/24 11:41:03;;;;;;;18.25;9.80;;;;;;;;;;6237384;28;20096;-90
2023/11/24 11:44:17;;;;;;;17.08;9.90;;;;;;;;;;6240444;28;20278;-90
2023/11/24 11:47:22;;;;;;;18.00;9.98;;;;;;;;;;6214292;28;20049;-90
2023/11/24 11:50:25;;;;;;;21.60;10.30;;;;;;;;;;6223679;28;20065;-92
2023/11/24 11:56:45;;;;;;;15.65;8.82;;;;;;;;;;6174038;28;20053;-91
2023/11/24 11:59:48;;;;;;;13.52;8.18;;;;;;;;;;6243973;28;20273;-90
2023/11/24 12:02:50;;;;;;;15.30;9.73;;;;;;;;;;6225824;28;20058;-90
2023/11/24 12:05:52;;;;;;;17.63;9.43;;;;;;;;;;6227452;28;20057;-90
2023/11/24 12:08:55;;;;;;;16.15;9.50;;;;;;;;;;6242360;28;20054;-90
2023/11/24 12:11:57;;;;;;;18.42;9.57;;;;;;;;;;6242973;28;20066;-90
2023/11/24 12:14:59;;;;;;;20.63;9.65;;;;;;;;;;6243484;28;20058;-90
2023/11/24 12:18:01;;;;;;;15.48;9.02;;;;;;;;;;6244914;28;20049;-89
2023/11/24 12:21:03;;;;;;;16.60;9.50;;;;;;;;;;6246706;28;20323;-88
2023/11/24 12:27:27;;;;;;;13.85;9.52;;;;;;;;;;6167455;28;20037;-88
2023/11/24 12:30:30;;;;;;;15.95;8.85;;;;;;;;;;6246590;28;20069;-90
2023/11/24 12:33:33;;;;;;;;;;;;;;;;;;6247807;28;20109;-91
2023/11/24 12:36:35;;;;;;;12.50;8.10;;;;;;;;;;6241151;28;19925;-91
2023/11/24 12:39:40;;;;;;;13.57;8.13;;;;;;;;;;6245344;28;20046;-89
2023/11/24 12:42:42;;;;;;;13.70;8.30;;;;;;;;;;6245493;28;20346;-90
2023/11/24 12:45:45;;;;;;;13.15;8.60;;;;;;;;;;6231256;28;20236;-89
2023/11/24 12:48:47;;;;;;;13.93;8.65;;;;;;;;;;6241174;28;20060;-88
2023/11/24 12:51:49;;;;;;;18.70;8.47;;;;;;;;;;6251189;28;20353;-90
2023/11/24 12:55:01;;;;;;;14.43;8.18;;;;;;;;;;6247242;28;20057;-88
2023/11/24 12:58:24;;;;;;;13.52;8.00;;;;;;;;;;6216216;28;20042;-92
2023/11/24 13:01:26;;;;;;;13.20;8.55;;;;;;;;;;6240824;28;20350;-89
2023/11/24 13:04:30;;;;;;;14.18;7.93;;;;;;;;;;6228610;28;20049;-90
2023/11/24 13:07:31;;;;;;;14.80;8.20;;;;;;;;;;6236533;28;20045;-89
2023/11/24 13:10:36;;;;;;;13.18;8.30;;;;;;;;;;6246848;28;20041;-90
2023/11/24 13:13:38;;;;;;;12.68;7.90;;;;;;;;;;6248168;28;20045;-91
2023/11/24 13:16:40;;;;;;;12.25;8.02;;;;;;;;;;6247488;28;20053;-91
2023/11/24 13:19:42;;;;;;;14.23;7.63;;;;;;;;;;6245361;28;20053;-91
2023/11/24 13:22:45;;;;;;;12.27;7.38;;;;;;;;;;6242438;28;20049;-89
2023/11/24 13:25:49;;;;;;;19.80;6.47;;;;;;;;;;6245117;28;20685;-90
2023/11/24 13:28:51;;;;;;;12.23;6.93;;;;;;;;;;6223824;28;20364;-90
2023/11/24 13:31:53;;;;;;;13.65;7.35;;;;;;;;;;6243913;28;20124;-90
2023/11/24 13:34:56;;;;;;;10.02;6.75;;;;;;;;;;6225068;28;20062;-91
2023/11/24 13:37:58;;;;;;;12.75;7.18;;;;;;;;;;6246248;28;20053;-92
2023/11/24 13:41:03;;;;;;;47.47;23.55;;;;;;;;;;6231848;28;20049;-95
2023/11/24 13:44:06;;;;;;;114.60;59.13;;;;;;;;;;6250234;28;20080;-92
2023/11/24 13:47:12;;;;;;;21.20;12.23;;;;;;;;;;6247480;28;20073;-91
2023/11/24 13:50:15;;;;;;;12.45;7.38;;;;;;;;;;6252529;28;20198;-95
2023/11/24 13:53:18;;;;;;;240.98;119.07;;;;;;;;;;6249588;28;20049;-95
2023/11/24 13:56:24;;;;;;;19.55;11.23;;;;;;;;;;6252510;28;20091;-96
2023/11/24 13:59:45;;;;;;;13.15;8.32;;;;;;;;;;6231769;28;20089;-91
2023/11/24 14:02:46;;;;;;;10.38;6.40;;;;;;;;;;6229988;28;20314;-92
2023/11/24 14:06:09;;;;;;;11.35;7.40;;;;;;;;;;6236742;28;20054;-90
2023/11/24 14:09:17;;;;;;;10.73;6.80;;;;;;;;;;6240113;28;20064;-90
2023/11/24 14:12:20;;;;;;;10.57;6.93;;;;;;;;;;6248516;28;20564;-90
2023/11/24 14:15:23;;;;;;;12.55;6.90;;;;;;;;;;6241525;28;20116;-89
2023/11/24 14:18:25;;;;;;;11.25;7.10;;;;;;;;;;6246938;28;20049;-88
2023/11/24 14:21:28;;;;;;;11.80;7.70;;;;;;;;;;6247222;28;20227;-89
2023/11/24 14:24:30;;;;;;;15.17;7.80;;;;;;;;;;6246523;28;20053;-90
2023/11/24 14:30:51;;;;;;;12.00;7.38;;;;;;;;;;6243641;28;20389;-90
2023/11/24 14:33:53;;;;;;;;;;;;;;;;;;6242812;28;20357;-91
2023/11/24 14:36:55;;;;;;;14.43;7.03;;;;;;;;;;6241704;28;21554;-91
2023/11/24 14:40:00;;;;;;;10.80;6.30;;;;;;;;;;6242302;28;20073;-89
2023/11/24 14:46:21;;;;;;;11.82;7.10;;;;;;;;;;6250102;28;20052;-87
2023/11/24 14:49:25;;;;;;;11.60;7.07;;;;;;;;;;6229195;28;20053;-90
2023/11/24 14:52:27;;;;;;;10.75;6.53;;;;;;;;;;6243637;28;20049;-91
2023/11/24 14:55:29;;;;;;;28.15;7.53;;;;;;;;;;6244355;28;20053;-90
2023/11/24 14:58:33;;;;;;;10.48;7.15;;;;;;;;;;6248379;28;21037;-88
2023/11/24 15:01:38;;;;;;;10.98;7.13;;;;;;;;;;6245873;28;20065;-90
2023/11/24 15:04:40;;;;;;;11.73;6.78;;;;;;;;;;6247379;28;20045;-91
2023/11/24 15:07:42;;;;;;;14.02;7.65;;;;;;;;;;6246193;28;20303;-88
2023/11/24 15:10:45;;;;;;;10.25;6.65;;;;;;;;;;6247230;28;20052;-91
2023/11/24 15:13:53;;;;;;;11.60;6.90;;;;;;;;;;6240459;28;20054;-90
2023/11/24 15:16:57;;;;;;;14.93;7.13;;;;;;;;;;6245145;28;20054;-89
2023/11/24 15:19:59;;;;;;;10.98;7.30;;;;;;;;;;6228427;28;20061;-92
2023/11/24 15:23:03;;;;;;;14.10;7.55;;;;;;;;;;6246183;28;20068;-90
2023/11/24 15:29:35;;;;;;;11.15;7.50;;;;;;;;;;6248106;28;20042;-91
2023/11/24 15:35:53;;;;;;;12.82;7.45;;;;;;;;;;6233475;28;20045;-92
2023/11/24 15:38:56;;;;;;;13.25;7.85;;;;;;;;;;6228734;28;20050;-91
2023/11/24 15:41:59;;;;;;;12.10;7.82;;;;;;;;;;6246673;28;20046;-90
2023/11/24 15:45:05;;;;;;;11.80;8.30;;;;;;;;;;6247611;28;20072;-90
2023/11/24 15:48:07;;;;;;;13.18;8.15;;;;;;;;;;6246264;28;20064;-93
2023/11/24 15:51:11;;;;;;;14.07;8.45;;;;;;;;;;6248018;28;20053;-91
2023/11/24 15:54:13;;;;;;;13.70;7.20;;;;;;;;;;6254512;28;20045;-91
2023/11/24 15:57:15;;;;;;;14.32;8.18;;;;;;;;;;6256076;28;20053;-89
2023/11/24 16:00:31;;;;;;;13.48;8.23;;;;;;;;;;6251274;28;20124;-91
2023/11/24 16:03:36;;;;;;;16.75;8.15;;;;;;;;;;6248410;28;20105;-92
2023/11/24 16:06:40;;;;;;;13.45;7.95;;;;;;;;;;6250684;28;20049;-92
2023/11/24 16:09:42;;;;;;;13.98;7.68;;;;;;;;;;6250723;28;20068;-91
2023/11/24 16:12:48;;;;;;;14.30;8.00;;;;;;;;;;6246951;28;20045;-93
2023/11/24 16:15:52;;;;;;;61.33;33.30;;;;;;;;;;6220682;28;20072;-92
2023/11/24 16:18:54;;;;;;;223.18;112.50;;;;;;;;;;6222381;28;20045;-92
2023/11/24 16:21:56;;;;;;;55.80;27.40;;;;;;;;;;6233186;28;20385;-93
2023/11/24 16:24:58;;;;;;;17.55;10.43;;;;;;;;;;6243769;28;20045;-93
2023/11/24 16:28:01;;;;;;;21.70;12.05;;;;;;;;;;6247587;28;20234;-92
2023/11/24 16:31:23;;;;;;;15.63;7.25;;;;;;;;;;6241231;28;20238;-91
2023/11/24 16:34:47;;;;;;;13.25;7.38;;;;;;;;;;6216122;28;20135;-90
2023/11/24 16:37:49;;;;;;;12.95;7.45;;;;;;;;;;6248365;28;20065;-91
2023/11/24 16:40:51;;;;;;;13.70;7.28;;;;;;;;;;6244127;28;20090;-89
2023/11/24 16:43:53;;;;;;;12.52;7.22;;;;;;;;;;6245177;28;20050;-90
2023/11/24 16:46:57;;;;;;;13.60;7.32;;;;;;;;;;6247077;28;20432;-89
2023/11/24 16:49:59;;;;;;;13.40;7.25;;;;;;;;;;6244783;28;20058;-90
2023/11/24 16:53:01;;;;;;;12.20;8.07;;;;;;;;;;6244828;28;20058;-91
2023/11/24 16:56:04;;;;;;;11.50;7.10;;;;;;;;;;6244027;28;20045;-90
2023/11/24 16:59:06;;;;;;;13.32;6.53;;;;;;;;;;6246223;28;20069;-91
2023/11/24 17:02:09;;;;;;;17.13;7.00;;;;;;;;;;6232624;28;20089;-90
2023/11/24 17:05:13;;;;;;;12.55;6.85;;;;;;;;;;6232534;28;20045;-93
2023/11/24 17:08:15;;;;;;;15.50;7.25;;;;;;;;;;6227149;28;20120;-90
2023/11/24 17:11:18;;;;;;;13.50;6.63;;;;;;;;;;6233923;28;20061;-89
2023/11/24 17:14:20;;;;;;;13.57;6.87;;;;;;;;;;6228879;28;20064;-91
2023/11/24 17:17:23;;;;;;;14.50;7.95;;;;;;;;;;6244579;28;20685;-91
2023/11/24 17:20:26;;;;;;;12.90;7.90;;;;;;;;;;6248714;28;20085;-91
2023/11/24 17:23:28;;;;;;;20.67;9.07;;;;;;;;;;6247135;28;20080;-91
2023/11/24 17:26:31;;;;;;;16.48;8.07;;;;;;;;;;6247687;28;20068;-90
2023/11/24 17:29:35;;;;;;;12.50;7.63;;;;;;;;;;6245545;28;20088;-90
2023/11/24 17:32:38;;;;;;;;;;;;;;;;;;6244618;28;20231;-89
2023/11/24 17:35:40;;;;;;;15.77;7.90;;;;;;;;;;6244949;28;20465;-92
2023/11/24 17:38:42;;;;;;;12.93;7.70;;;;;;;;;;6246214;28;20057;-92
2023/11/24 17:41:44;;;;;;;18.20;8.50;;;;;;;;;;6249345;28;20057;-89
2023/11/24 17:44:46;;;;;;;13.15;7.93;;;;;;;;;;6245353;28;20049;-90
2023/11/24 17:47:51;;;;;;;14.00;8.15;;;;;;;;;;6244756;28;20069;-90
2023/11/24 17:50:53;;;;;;;15.55;7.80;;;;;;;;;;6231879;28;20085;-90
2023/11/24 17:53:55;;;;;;;17.50;8.80;;;;;;;;;;6244175;28;20059;-90
2023/11/24 17:56:59;;;;;;;19.73;9.07;;;;;;;;;;6244231;28;20342;-96
2023/11/24 18:00:03;;;;;;;14.35;8.60;;;;;;;;;;6250009;28;20060;-90
2023/11/24 18:03:07;;;;;;;17.73;9.38;;;;;;;;;;6243028;28;20053;-94
2023/11/24 18:06:10;;;;;;;15.32;8.27;;;;;;;;;;6227608;28;20058;-92
2023/11/24 18:09:12;;;;;;;14.70;8.52;;;;;;;;;;6249291;28;20199;-90
2023/11/24 18:12:16;;;;;;;17.58;9.18;;;;;;;;;;6248345;28;20242;-90
2023/11/24 18:15:18;;;;;;;14.13;8.57;;;;;;;;;;6245889;28;20342;-91
2023/11/24 18:21:37;;;;;;;15.20;8.57;;;;;;;;;;6232759;28;20088;-91
2023/11/24 18:24:39;;;;;;;15.80;8.95;;;;;;;;;;6248484;28;20055;-91
2023/11/24 18:27:42;;;;;;;17.00;8.77;;;;;;;;;;6242258;28;20054;-91
2023/11/24 18:30:45;;;;;;;15.00;9.13;;;;;;;;;;6248347;28;20052;-91
2023/11/24 18:33:49;;;;;;;15.05;8.55;;;;;;;;;;6226900;28;20042;-89
2023/11/24 18:36:51;;;;;;;16.15;8.85;;;;;;;;;;6236808;28;20290;-92
2023/11/24 18:39:53;;;;;;;16.48;8.50;;;;;;;;;;6246799;28;20049;-91